Time;durP1;ratioP1;P1;durP2;ratioP2;P2;SDS_P1;SDS_P2;PMS_P1;PMS_P2;Temp;Humidity;BMP_temperature;BMP_pressure;BME280_temperature;BME280_humidity;BME280_pressure;Samples;Min_cycle;Max_cycle;Signal;HPM_P1;HPM_P2
2021/04/03 00:00:52;;;;;;;20.82;6.22;;;;;;;5.14;64.88;100594.72;1791346;77;27529;-67
2021/04/03 00:03:23;;;;;;;21.45;8.10;;;;;;;5.14;65.33;100581.89;1782018;78;25833;-67
2021/04/03 00:05:53;;;;;;;18.73;6.15;;;;;;;5.11;65.11;100588.14;1786202;77;26006;-68
2021/04/03 00:08:25;;;;;;;15.72;5.83;;;;;;;5.10;65.18;100591.70;1790236;77;25804;-66
2021/04/03 00:11:01;;;;;;;21.85;6.42;;;;;;;5.07;65.15;100595.76;1765783;77;26186;-66
2021/04/03 00:13:37;;;;;;;22.13;7.25;;;;;;;5.08;65.20;100600.62;1772364;79;27906;-67
2021/04/03 00:16:06;;;;;;;20.77;6.28;;;;;;;5.07;65.13;100590.90;1774994;77;25870;-67
2021/04/03 00:18:33;;;;;;;24.27;7.10;;;;;;;5.08;65.09;100598.84;1775855;79;25806;-65
2021/04/03 00:21:02;;;;;;;21.00;5.62;;;;;;;5.05;65.34;100592.71;1777988;77;26196;-68
2021/04/03 00:23:30;;;;;;;19.57;6.70;;;;;;;5.02;65.35;100590.13;1774381;79;25755;-67
2021/04/03 00:25:58;;;;;;;20.35;6.78;;;;;;;4.99;65.30;100588.41;1770490;77;27741;-68
2021/04/03 00:28:26;;;;;;;15.75;6.45;;;;;;;4.98;65.32;100595.95;1774168;79;26218;-67
2021/04/03 00:30:54;;;;;;;25.45;6.62;;;;;;;4.97;65.39;100586.23;1737398;79;25831;-67
2021/04/03 00:33:21;;;;;;;20.15;7.60;;;;;;;4.95;65.38;100588.50;1707548;82;26642;-67
2021/04/03 00:35:49;;;;;;;20.92;6.17;;;;;;;4.96;65.42;100596.44;1738807;79;25899;-67
2021/04/03 00:38:17;;;;;;;18.65;6.28;;;;;;;4.92;65.57;100594.76;1738257;81;27351;-67
2021/04/03 00:40:48;;;;;;;27.30;6.67;;;;;;;4.89;65.75;100594.82;1733274;81;25913;-68
2021/04/03 00:43:18;;;;;;;;;;;;;;;4.86;65.72;100597.09;1740124;81;25793;-67
2021/04/03 00:45:47;;;;;;;15.60;5.12;;;;;;;4.82;65.98;100589.22;1736273;81;25846;-67
2021/04/03 00:48:16;;;;;;;24.90;6.08;;;;;;;4.76;66.75;100598.19;1725693;81;26443;-68
2021/04/03 00:50:48;;;;;;;18.17;5.42;;;;;;;4.71;66.33;100588.56;1765764;79;27446;-67
2021/04/03 00:53:21;;;;;;;13.83;5.87;;;;;;;4.68;66.47;100592.16;1777816;79;27553;-68
2021/04/03 00:55:49;;;;;;;24.05;6.53;;;;;;;4.64;66.67;100586.94;1780467;77;26348;-68
2021/04/03 00:58:18;;;;;;;24.98;6.70;;;;;;;4.61;66.47;100592.30;1780916;79;26184;-68
2021/04/03 01:00:47;;;;;;;25.65;5.97;;;;;;;4.60;66.44;100587.45;1737666;81;25734;-65
2021/04/03 01:03:16;;;;;;;20.92;6.00;;;;;;;4.58;66.48;100589.71;1771649;79;27432;-67
2021/04/03 01:05:43;;;;;;;13.35;6.10;;;;;;;4.54;66.59;100595.08;1780800;79;25895;-67
2021/04/03 01:08:11;;;;;;;13.05;5.15;;;;;;;4.50;66.50;100610.64;1780850;77;26222;-67
2021/04/03 01:10:49;;;;;;;17.25;5.17;;;;;;;4.47;66.62;100605.39;1747155;80;26165;-67
2021/04/03 01:13:43;;;;;;;15.93;4.67;;;;;;;4.43;66.62;100610.78;1721374;81;25844;-68
2021/04/03 01:16:19;;;;;;;15.68;5.30;;;;;;;4.37;66.45;100605.59;1726386;80;27316;-67
2021/04/03 01:19:18;;;;;;;21.52;5.30;;;;;;;4.31;66.27;100611.02;1731361;80;25822;-67
2021/04/03 01:22:17;;;;;;;16.48;5.12;;;;;;;4.27;66.25;100604.02;1731845;80;26084;-68
2021/04/03 01:25:20;;;;;;;11.93;4.60;;;;;;;4.23;66.10;100608.05;1714609;80;26860;-67
2021/04/03 01:28:28;;;;;;;16.67;4.80;;;;;;;4.19;66.00;100604.15;1727944;80;26448;-67
2021/04/03 01:30:57;;;;;;;12.47;4.65;;;;;;;4.15;65.93;100604.66;1735433;79;27789;-68
2021/04/03 01:33:27;;;;;;;13.03;4.55;;;;;;;4.10;65.83;100596.36;1742294;79;25815;-68
2021/04/03 01:36:04;;;;;;;21.33;6.23;;;;;;;4.08;65.85;100599.04;1734584;79;25409;-68
2021/04/03 01:38:54;;;;;;;11.03;4.25;;;;;;;4.00;65.77;100598.75;1715120;81;25852;-67
2021/04/03 01:41:26;;;;;;;10.78;4.20;;;;;;;3.96;65.81;100603.68;1738652;81;25821;-67
2021/04/03 01:43:54;;;;;;;;;;;;;;;3.89;65.75;100605.11;1744901;79;28037;-67
2021/04/03 01:46:23;;;;;;;21.77;5.20;;;;;;;3.84;65.83;100602.98;1738692;79;26005;-67
2021/04/03 01:48:53;;;;;;;11.30;5.37;;;;;;;3.79;65.77;100610.59;1741560;79;25836;-66
2021/04/03 01:51:23;;;;;;;13.28;4.90;;;;;;;3.74;65.86;100609.78;1725832;82;25774;-65
2021/04/03 01:53:52;;;;;;;16.67;5.12;;;;;;;3.71;65.87;100616.02;1730421;80;26399;-65
2021/04/03 01:56:22;;;;;;;7.85;4.47;;;;;;;3.66;65.95;100606.37;1729256;80;27255;-65
2021/04/03 01:58:51;;;;;;;16.40;5.30;;;;;;;3.62;65.99;100608.66;1747408;79;26110;-65
2021/04/03 02:01:20;;;;;;;14.43;4.83;;;;;;;3.58;66.06;100606.50;1750891;79;26313;-66
2021/04/03 02:03:48;;;;;;;26.20;6.17;;;;;;;3.53;66.11;100605.70;1750122;79;26204;-66
2021/04/03 02:06:19;;;;;;;20.80;6.03;;;;;;;3.50;66.09;100602.64;1740342;80;25846;-66
2021/04/03 02:08:48;;;;;;;15.40;5.20;;;;;;;3.47;66.19;100610.64;1748479;79;27874;-66
2021/04/03 02:11:16;;;;;;;14.58;5.28;;;;;;;3.44;66.43;100615.11;1737401;81;26386;-66
2021/04/03 02:13:45;;;;;;;20.37;5.22;;;;;;;3.39;66.39;100611.20;1733661;81;25873;-66
2021/04/03 02:16:13;;;;;;;12.95;5.12;;;;;;;3.36;66.42;100609.92;1733669;80;25829;-66
2021/04/03 02:18:42;;;;;;;14.20;5.00;;;;;;;3.34;66.71;100620.98;1737661;80;25405;-66
2021/04/03 02:21:11;;;;;;;18.27;5.42;;;;;;;3.30;67.03;100618.41;1735341;80;28262;-65
2021/04/03 02:23:39;;;;;;;18.12;5.78;;;;;;;3.25;67.00;100621.11;1730514;81;25909;-66
2021/04/03 02:26:08;;;;;;;15.98;4.95;;;;;;;3.22;66.90;100623.81;1730878;80;25863;-66
2021/04/03 02:28:37;;;;;;;17.87;5.22;;;;;;;3.19;67.00;100627.37;1732317;80;25923;-66
2021/04/03 02:31:05;;;;;;;18.37;6.30;;;;;;;3.16;67.13;100626.54;1733045;80;25735;-67
2021/04/03 02:33:32;;;;;;;14.40;5.20;;;;;;;3.11;67.23;100631.02;1738441;80;27932;-66
2021/04/03 02:36:00;;;;;;;15.65;5.17;;;;;;;3.07;67.35;100635.92;1692460;81;26419;-66
2021/04/03 02:38:28;;;;;;;15.23;6.35;;;;;;;3.05;67.53;100632.42;1728300;81;25933;-66
2021/04/03 02:40:56;;;;;;;25.12;5.78;;;;;;;3.01;67.50;100643.95;1691628;81;26744;-66
2021/04/03 02:43:50;;;;;;;13.28;5.25;;;;;;;2.97;67.52;100639.14;1720708;80;25926;-66
2021/04/03 02:46:32;;;;;;;16.05;6.00;;;;;;;2.94;67.54;100647.12;1737506;81;27914;-67
2021/04/03 02:49:04;;;;;;;17.67;6.12;;;;;;;2.88;67.58;100643.22;1735298;80;26497;-66
2021/04/03 02:51:37;;;;;;;18.15;6.47;;;;;;;2.85;67.72;100645.91;1751921;79;25938;-66
2021/04/03 02:54:08;;;;;;;14.13;5.28;;;;;;;2.81;67.81;100648.16;1707396;80;26273;-66
2021/04/03 02:56:40;;;;;;;19.10;5.87;;;;;;;2.77;67.84;100653.94;1731833;81;26435;-67
2021/04/03 02:59:15;;;;;;;16.62;6.12;;;;;;;2.74;67.89;100657.94;1736043;80;27850;-66
2021/04/03 03:01:46;;;;;;;11.57;5.03;;;;;;;2.72;68.03;100654.88;1738532;81;26207;-66
2021/04/03 03:04:17;;;;;;;23.83;5.90;;;;;;;2.69;68.09;100658.89;1715611;81;32995;-66
2021/04/03 03:06:48;;;;;;;13.28;4.92;;;;;;;2.65;68.23;100655.39;1722475;81;25878;-66
2021/04/03 03:09:19;;;;;;;19.95;6.10;;;;;;;2.64;68.41;100660.26;1732677;81;25862;-66
2021/04/03 03:11:51;;;;;;;25.65;6.78;;;;;;;2.60;68.38;100658.57;1692949;81;27527;-66
2021/04/03 03:14:20;;;;;;;20.35;5.28;;;;;;;2.57;68.38;100663.90;1678500;83;26621;-66
2021/04/03 03:16:49;;;;;;;17.40;5.92;;;;;;;2.53;68.49;100661.73;1716933;80;25830;-66
2021/04/03 03:19:19;;;;;;;21.77;7.15;;;;;;;2.51;68.56;100665.28;1675868;81;26198;-66
2021/04/03 03:21:47;;;;;;;13.22;5.87;;;;;;;2.48;68.66;100666.64;1682895;82;25876;-67
2021/04/03 03:24:16;;;;;;;26.05;8.15;;;;;;;2.45;68.81;100670.63;1736189;80;28444;-66
2021/04/03 03:26:46;;;;;;;15.40;6.00;;;;;;;2.42;68.81;100678.60;1733861;81;26342;-66
2021/04/03 03:29:14;;;;;;;25.75;7.65;;;;;;;2.41;68.91;100680.81;1733276;80;25867;-67
2021/04/03 03:31:42;;;;;;;21.25;5.70;;;;;;;2.36;68.91;100683.95;1738454;81;26050;-66
2021/04/03 03:34:10;;;;;;;20.35;6.85;;;;;;;2.32;68.94;100681.78;1733988;79;25888;-66
2021/04/03 03:36:39;;;;;;;17.50;6.80;;;;;;;2.29;69.03;100685.77;1692902;83;27900;-66
2021/04/03 03:39:08;;;;;;;18.57;5.85;;;;;;;2.24;69.11;100685.81;1689323;81;25789;-66
2021/04/03 03:41:37;;;;;;;13.10;7.25;;;;;;;2.22;69.21;100689.36;1698009;82;25826;-67
2021/04/03 03:44:07;;;;;;;21.57;7.87;;;;;;;2.19;69.42;100686.74;1697104;82;26675;-67
2021/04/03 03:46:35;;;;;;;18.52;7.37;;;;;;;2.14;69.65;100682.81;1694960;82;25833;-66
2021/04/03 03:49:04;;;;;;;14.43;6.78;;;;;;;2.13;69.67;100690.31;1694956;82;28431;-66
2021/04/03 03:51:32;;;;;;;15.30;6.30;;;;;;;2.10;69.74;100690.34;1692618;83;25770;-66
2021/04/03 03:54:00;;;;;;;15.63;6.75;;;;;;;2.09;69.72;100694.32;1698791;82;26025;-66
2021/04/03 03:56:28;;;;;;;20.02;7.40;;;;;;;2.07;69.77;100696.09;1694057;82;26763;-66
2021/04/03 03:58:56;;;;;;;19.50;6.95;;;;;;;2.05;69.79;100695.23;1691755;81;25908;-66
2021/04/03 04:01:24;;;;;;;12.07;6.08;;;;;;;2.03;69.89;100699.21;1700485;81;27796;-66
2021/04/03 04:03:52;;;;;;;28.25;8.68;;;;;;;2.03;69.94;100702.30;1693374;81;25828;-66
2021/04/03 04:06:19;;;;;;;22.75;7.42;;;;;;;2.01;70.01;100700.98;1690156;82;25775;-66
2021/04/03 04:08:47;;;;;;;22.07;8.28;;;;;;;1.99;70.00;100704.53;1682837;82;26800;-66
2021/04/03 04:11:15;;;;;;;21.82;8.23;;;;;;;1.95;70.05;100708.97;1699951;82;25977;-66
2021/04/03 04:13:43;;;;;;;13.20;7.10;;;;;;;1.88;70.06;100698.00;1743869;80;27730;-67
2021/04/03 04:16:11;;;;;;;24.70;8.73;;;;;;;1.90;70.05;100710.32;1780475;77;26303;-66
2021/04/03 04:18:38;;;;;;;21.80;8.90;;;;;;;1.88;70.13;100718.70;1783202;79;25841;-66
2021/04/03 04:21:06;;;;;;;23.85;8.83;;;;;;;1.86;70.14;100713.88;1777403;77;26065;-66
2021/04/03 04:23:34;;;;;;;20.40;7.70;;;;;;;1.83;70.28;100717.86;1773019;77;26195;-66
2021/04/03 04:26:02;;;;;;;22.77;8.55;;;;;;;1.80;70.55;100713.91;1780085;77;27733;-66
2021/04/03 04:28:30;;;;;;;27.07;9.55;;;;;;;1.76;70.54;100721.42;1783511;77;26286;-66
2021/04/03 04:30:58;;;;;;;29.80;8.95;;;;;;;1.75;70.56;100722.76;1783650;77;25388;-66
2021/04/03 04:33:25;;;;;;;19.23;9.20;;;;;;;1.72;70.61;100719.69;1769065;77;25765;-66
2021/04/03 04:35:53;;;;;;;31.70;11.05;;;;;;;1.69;70.69;100718.83;1778890;77;25783;-66
2021/04/03 04:38:21;;;;;;;23.18;8.03;;;;;;;1.68;70.82;100723.68;1783737;77;28290;-66
2021/04/03 04:40:49;;;;;;;22.80;9.13;;;;;;;1.66;71.02;100722.37;1775361;79;25840;-66
2021/04/03 04:43:22;;;;;;;26.42;9.30;;;;;;;1.66;71.03;100723.69;1783567;79;25729;-66
2021/04/03 04:45:49;;;;;;;31.10;11.40;;;;;;;1.61;71.20;100719.75;1775827;77;26107;-66
2021/04/03 04:48:17;;;;;;;26.50;10.00;;;;;;;1.60;71.27;100722.41;1783492;79;25801;-67
2021/04/03 04:50:45;;;;;;;27.42;10.72;;;;;;;1.60;71.28;100723.28;1774485;77;28396;-66
2021/04/03 04:53:13;;;;;;;37.75;9.60;;;;;;;1.59;71.50;100727.25;1779142;79;25856;-66
2021/04/03 04:55:41;;;;;;;25.23;10.13;;;;;;;1.58;71.57;100734.74;1783688;77;25808;-66
2021/04/03 04:58:09;;;;;;;32.60;10.90;;;;;;;1.59;71.63;100743.10;1781891;77;26706;-66
2021/04/03 05:00:37;;;;;;;28.47;10.58;;;;;;;1.61;71.66;100740.89;1781346;79;25483;-65
2021/04/03 05:03:04;;;;;;;29.18;10.63;;;;;;;1.64;71.69;100746.59;1776871;77;27438;-66
2021/04/03 05:05:32;;;;;;;32.60;11.05;;;;;;;1.66;71.74;100753.20;1773741;79;26352;-66
2021/04/03 05:08:00;;;;;;;30.35;11.80;;;;;;;1.67;71.79;100759.80;1782169;77;25876;-66
2021/04/03 05:10:28;;;;;;;27.52;11.18;;;;;;;1.68;71.80;100756.70;1781154;79;25933;-66
2021/04/03 05:13:01;;;;;;;27.55;11.22;;;;;;;1.70;71.84;100754.94;1775006;78;25891;-66
2021/04/03 05:15:29;;;;;;;34.50;11.55;;;;;;;1.73;71.81;100761.52;1776846;78;27968;-65
2021/04/03 05:17:57;;;;;;;27.00;11.83;;;;;;;1.74;71.85;100764.60;1768287;78;25847;-65
2021/04/03 05:20:25;;;;;;;28.32;10.70;;;;;;;1.75;71.85;100769.88;1778631;78;26404;-66
2021/04/03 05:22:52;;;;;;;28.20;10.50;;;;;;;1.76;71.90;100768.11;1773089;78;26679;-66
2021/04/03 05:25:20;;;;;;;36.58;12.03;;;;;;;1.78;72.15;100767.66;1775052;79;25892;-66
2021/04/03 05:27:48;;;;;;;33.78;12.37;;;;;;;1.79;72.31;100772.06;1777837;78;28542;-62
2021/04/03 05:30:17;;;;;;;24.32;10.85;;;;;;;1.79;72.39;100774.26;1777950;79;26362;-61
2021/04/03 05:32:45;;;;;;;33.63;11.63;;;;;;;1.83;72.51;100771.16;1776761;79;25764;-62
2021/04/03 05:35:14;;;;;;;36.77;12.53;;;;;;;1.85;72.58;100770.70;1773798;79;26419;-62
2021/04/03 05:37:42;;;;;;;32.35;12.07;;;;;;;1.88;72.58;100769.36;1778066;79;25557;-62
2021/04/03 05:40:12;;;;;;;37.38;12.13;;;;;;;1.92;72.68;100758.77;1770819;78;28116;-62
2021/04/03 05:42:45;;;;;;;31.65;12.35;;;;;;;1.98;72.68;100771.06;1777824;78;25938;-62
2021/04/03 05:45:16;;;;;;;31.20;13.00;;;;;;;2.05;73.01;100770.58;1771381;78;26125;-62
2021/04/03 05:47:46;;;;;;;31.70;11.78;;;;;;;2.10;72.98;100780.68;1777330;79;26363;-62
2021/04/03 05:50:13;;;;;;;38.90;12.53;;;;;;;2.15;72.97;100774.91;1728951;80;25835;-61
2021/04/03 05:52:41;;;;;;;28.50;11.95;;;;;;;2.21;72.88;100774.42;1731013;81;27752;-61
2021/04/03 05:55:10;;;;;;;25.17;10.88;;;;;;;2.27;72.91;100777.03;1735516;80;25898;-62
2021/04/03 05:57:38;;;;;;;39.63;13.70;;;;;;;2.33;72.98;100773.91;1735985;80;25952;-61
2021/04/03 06:00:08;;;;;;;25.92;11.45;;;;;;;2.42;73.13;100783.09;1701630;81;26089;-61
2021/04/03 06:02:38;;;;;;;32.55;10.35;;;;;;;2.49;73.22;100787.00;1705772;82;25596;-61
2021/04/03 06:05:07;;;;;;;30.75;10.95;;;;;;;2.55;73.14;100782.09;1733246;80;27455;-61
2021/04/03 06:07:35;;;;;;;22.62;9.60;;;;;;;2.64;73.20;100790.38;1673993;83;25815;-61
2021/04/03 06:10:08;;;;;;;26.17;8.68;;;;;;;2.72;73.22;100796.03;1716991;80;25846;-61
2021/04/03 06:12:48;;;;;;;27.62;9.25;;;;;;;2.79;73.34;100790.23;1728359;82;26096;-61
2021/04/03 06:15:30;;;;;;;17.12;8.50;;;;;;;2.85;73.34;100794.14;1729181;82;25749;-62
2021/04/03 06:18:01;;;;;;;24.37;9.93;;;;;;;2.92;73.45;100793.19;1728708;82;28509;-61
2021/04/03 06:20:36;;;;;;;19.52;9.33;;;;;;;2.99;73.27;100795.33;1730129;82;25755;-61
2021/04/03 06:23:06;;;;;;;18.48;7.85;;;;;;;3.07;73.20;100804.08;1722756;81;25842;-62
2021/04/03 06:25:53;;;;;;;23.80;8.80;;;;;;;3.15;73.30;100807.52;1743709;80;26497;-61
2021/04/03 06:28:32;;;;;;;26.45;8.83;;;;;;;3.17;73.05;100803.97;1738389;80;26403;-62
2021/04/03 06:31:17;;;;;;;26.40;10.45;;;;;;;3.13;73.00;100806.22;1733294;79;27662;-62
2021/04/03 06:33:45;;;;;;;24.67;9.58;;;;;;;3.13;72.94;100810.64;1714553;82;25953;-62
2021/04/03 06:36:16;;;;;;;30.45;8.25;;;;;;;3.16;72.90;100817.22;1722699;81;25779;-61
2021/04/03 06:38:46;;;;;;;24.23;10.80;;;;;;;3.16;72.87;100827.82;1720810;81;26425;-62
2021/04/03 06:41:23;;;;;;;21.17;8.93;;;;;;;3.09;72.85;100827.45;1718227;81;25843;-61
2021/04/03 06:44:09;;;;;;;28.52;13.22;;;;;;;3.02;72.99;100831.05;1717919;80;28414;-61
2021/04/03 06:46:42;;;;;;;25.88;11.50;;;;;;;2.92;72.91;100839.08;1713339;81;25937;-61
2021/04/03 06:49:11;;;;;;;32.00;10.98;;;;;;;2.88;73.11;100843.97;1714357;80;25921;-61
2021/04/03 06:51:40;;;;;;;27.90;11.83;;;;;;;2.89;73.29;100850.14;1722431;81;25797;-61
2021/04/03 06:54:10;;;;;;;24.95;10.70;;;;;;;2.90;73.18;100850.13;1717098;81;25844;-60
2021/04/03 06:56:39;;;;;;;21.15;9.65;;;;;;;2.91;73.64;100848.36;1717166;81;28964;-60
2021/04/03 06:59:12;;;;;;;28.85;10.75;;;;;;;2.89;73.40;100854.11;1719557;80;26396;-59
2021/04/03 07:01:55;;;;;;;23.15;10.55;;;;;;;2.98;73.88;100861.09;1720700;81;25886;-60
2021/04/03 07:04:43;;;;;;;25.08;10.70;;;;;;;2.98;73.88;100857.13;1721191;81;26454;-60
2021/04/03 07:07:12;;;;;;;24.23;11.38;;;;;;;3.00;73.95;100863.28;1716370;80;26215;-61
2021/04/03 07:09:42;;;;;;;27.73;11.00;;;;;;;3.05;73.86;100846.91;1720620;81;27371;-61
2021/04/03 07:12:12;;;;;;;20.85;11.18;;;;;;;3.13;73.94;100854.34;1718612;80;25785;-61
2021/04/03 07:14:41;;;;;;;28.37;10.83;;;;;;;3.24;74.03;100853.78;1710111;81;26733;-61
2021/04/03 07:17:10;;;;;;;27.50;10.75;;;;;;;3.27;73.85;100863.02;1716436;81;26006;-60
2021/04/03 07:19:39;;;;;;;23.80;10.90;;;;;;;3.37;73.80;100862.03;1713358;81;25806;-61
2021/04/03 07:22:07;;;;;;;29.45;11.60;;;;;;;3.46;73.72;100868.56;1719547;80;27786;-61
2021/04/03 07:24:36;;;;;;;33.48;10.65;;;;;;;3.52;73.57;100867.62;1717359;81;26491;-61
2021/04/03 07:27:06;;;;;;;27.87;9.78;;;;;;;3.58;73.51;100868.42;1718998;81;26010;-61
2021/04/03 07:29:48;;;;;;;21.80;9.28;;;;;;;3.71;73.59;100865.64;1713547;81;26258;-60
2021/04/03 07:32:41;;;;;;;25.00;9.93;;;;;;;3.76;73.39;100870.44;1716500;81;25895;-61
2021/04/03 07:35:19;;;;;;;20.92;8.83;;;;;;;3.81;73.25;100873.91;1717180;81;28472;-62
2021/04/03 07:37:48;;;;;;;21.48;8.65;;;;;;;3.89;73.19;100870.72;1719938;81;25838;-62
2021/04/03 07:40:28;;;;;;;16.77;8.08;;;;;;;3.96;73.05;100873.72;1713639;81;25861;-62
2021/04/03 07:42:57;;;;;;;25.32;9.60;;;;;;;4.03;73.02;100878.50;1716524;80;25938;-62
2021/04/03 07:45:46;;;;;;;22.93;10.13;;;;;;;4.10;72.84;100881.05;1718180;81;25823;-62
2021/04/03 07:48:39;;;;;;;17.45;9.48;;;;;;;4.17;72.78;100878.75;1719193;81;27910;-62
2021/04/03 07:51:16;;;;;;;22.37;8.98;;;;;;;4.30;72.71;100872.82;1713642;80;25927;-63
2021/04/03 07:53:47;;;;;;;18.55;7.62;;;;;;;4.42;72.59;100875.75;1721450;81;25861;-63
2021/04/03 07:56:18;;;;;;;19.33;8.87;;;;;;;4.52;72.49;100878.69;1717967;81;25993;-63
2021/04/03 07:58:48;;;;;;;;;;;;;;;4.62;72.37;100882.97;1746456;79;26339;-62
2021/04/03 08:01:17;;;;;;;20.25;10.28;;;;;;;4.74;72.24;100884.11;1740586;81;28522;-63
2021/04/03 08:04:04;;;;;;;20.12;8.65;;;;;;;4.84;72.14;100890.15;1731911;80;25741;-63
2021/04/03 08:06:38;;;;;;;23.60;9.50;;;;;;;4.94;71.93;100886.89;1741252;80;25840;-63
2021/04/03 08:09:16;;;;;;;17.73;8.53;;;;;;;5.08;71.92;100888.41;1711996;81;26294;-63
2021/04/03 08:11:45;;;;;;;20.57;8.90;;;;;;;5.19;71.71;100892.22;1721494;81;25766;-63
2021/04/03 08:14:16;;;;;;;22.10;8.70;;;;;;;5.32;71.64;100893.72;1716179;81;28020;-63
2021/04/03 08:16:44;;;;;;;22.57;8.60;;;;;;;5.44;71.54;100892.17;1721965;81;25802;-63
2021/04/03 08:19:12;;;;;;;16.27;7.35;;;;;;;5.55;71.25;100897.28;1710387;81;25876;-63
2021/04/03 08:21:45;;;;;;;17.98;7.83;;;;;;;5.65;71.12;100894.87;1722404;81;26707;-63
2021/04/03 08:24:15;;;;;;;17.55;5.85;;;;;;;5.76;71.03;100898.20;1720487;81;26003;-63
2021/04/03 08:26:43;;;;;;;14.30;6.43;;;;;;;5.85;70.60;100899.81;1721135;81;27455;-63
2021/04/03 08:29:27;;;;;;;14.73;6.40;;;;;;;5.93;70.44;100899.69;1722161;80;25841;-63
2021/04/03 08:31:57;;;;;;;19.10;8.73;;;;;;;5.97;70.12;100894.73;1707853;80;25913;-64
2021/04/03 08:34:26;;;;;;;18.52;6.97;;;;;;;5.97;69.90;100898.72;1722382;81;26081;-64
2021/04/03 08:36:54;;;;;;;22.65;6.65;;;;;;;6.02;69.79;100906.16;1720924;80;25873;-63
2021/04/03 08:39:25;;;;;;;13.05;6.05;;;;;;;6.09;69.61;100912.65;1722437;81;28386;-62
2021/04/03 08:41:56;;;;;;;15.32;6.10;;;;;;;6.15;69.26;100907.20;1721278;81;25876;-63
2021/04/03 08:44:30;;;;;;;10.78;5.12;;;;;;;6.23;69.09;100910.16;1714290;81;25796;-63
2021/04/03 08:47:04;;;;;;;15.32;5.65;;;;;;;6.35;68.99;100910.77;1720538;81;26061;-63
2021/04/03 08:49:36;;;;;;;15.83;6.60;;;;;;;6.40;68.68;100906.22;1722586;81;26392;-62
2021/04/03 08:52:07;;;;;;;16.85;7.00;;;;;;;6.50;68.56;100909.09;1720166;80;27845;-63
2021/04/03 08:54:40;;;;;;;13.03;4.72;;;;;;;6.61;68.22;100917.30;1715224;80;26218;-63
2021/04/03 08:57:29;;;;;;;18.55;5.40;;;;;;;6.72;67.32;100919.27;1718049;81;25745;-62
2021/04/03 09:00:01;;;;;;;11.97;4.83;;;;;;;6.80;67.08;100915.50;1716647;80;26119;-64
2021/04/03 09:02:31;;;;;;;12.60;4.92;;;;;;;6.94;67.09;100912.52;1721767;81;25971;-63
2021/04/03 09:05:04;;;;;;;10.10;5.15;;;;;;;7.14;66.89;100913.36;1721738;80;25953;-63
2021/04/03 09:07:33;;;;;;;10.00;4.70;;;;;;;7.25;65.77;100913.97;1723030;81;25825;-63
2021/04/03 09:10:10;;;;;;;10.10;4.95;;;;;;;7.26;65.90;100907.72;1719692;80;25759;-63
2021/04/03 09:12:38;;;;;;;8.08;4.22;;;;;;;7.37;65.87;100899.44;1726590;81;25928;-63
2021/04/03 09:15:07;;;;;;;7.67;4.22;;;;;;;7.49;65.37;100898.66;1724090;80;26566;-63
2021/04/03 09:17:48;;;;;;;6.45;3.42;;;;;;;7.48;63.87;100907.58;1727556;81;27985;-63
2021/04/03 09:20:21;;;;;;;7.03;3.50;;;;;;;7.52;64.13;100912.38;1716773;81;25893;-63
2021/04/03 09:22:53;;;;;;;7.72;3.45;;;;;;;7.60;64.17;100913.50;1725980;80;26396;-63
2021/04/03 09:25:23;;;;;;;5.10;2.42;;;;;;;7.66;64.09;100914.67;1725668;81;26471;-58
2021/04/03 09:28:06;;;;;;;7.67;2.77;;;;;;;7.75;63.41;100910.42;1700341;80;25794;-62
2021/04/03 09:30:45;;;;;;;5.95;2.90;;;;;;;7.90;62.22;100914.42;1727896;81;28424;-62
2021/04/03 09:33:18;;;;;;;6.28;2.00;;;;;;;7.76;61.35;100909.50;1724452;81;25968;-63
2021/04/03 09:35:47;;;;;;;3.42;1.12;;;;;;;7.80;60.82;100913.84;1722224;81;26395;-65
2021/04/03 09:38:27;;;;;;;5.08;1.57;;;;;;;7.84;57.54;100915.47;1727532;81;26082;-64
2021/04/03 09:40:55;;;;;;;4.53;1.80;;;;;;;7.93;57.70;100909.88;1724156;80;26451;-64
2021/04/03 09:43:41;;;;;;;7.28;3.00;;;;;;;8.03;58.40;100909.16;1727099;81;28658;-65
2021/04/03 09:46:09;;;;;;;4.72;2.10;;;;;;;8.11;58.56;100909.34;1718184;80;26383;-63
2021/04/03 09:48:37;;;;;;;7.80;2.85;;;;;;;8.30;58.56;100914.15;1724403;81;25819;-63
2021/04/03 09:51:06;;;;;;;5.65;2.83;;;;;;;8.36;58.01;100908.20;1725023;80;25663;-64
2021/04/03 09:53:34;;;;;;;6.50;2.77;;;;;;;8.43;57.98;100908.42;1719694;81;25607;-64
2021/04/03 09:56:03;;;;;;;6.08;2.67;;;;;;;8.52;57.72;100905.94;1726248;80;27790;-65
2021/04/03 09:58:31;;;;;;;7.97;2.37;;;;;;;8.56;57.71;100907.59;1726636;81;26175;-64
2021/04/03 10:00:59;;;;;;;6.53;2.42;;;;;;;8.65;57.42;100903.30;1727185;80;25779;-64
2021/04/03 10:03:26;;;;;;;4.35;2.30;;;;;;;8.53;57.24;100893.45;1722390;81;26032;-64
2021/04/03 10:05:54;;;;;;;4.42;2.37;;;;;;;8.46;57.19;100901.66;1726956;80;26470;-64
2021/04/03 10:08:22;;;;;;;5.28;2.37;;;;;;;8.38;56.80;100905.48;1722100;81;26889;-64
2021/04/03 10:10:50;;;;;;;11.50;3.25;;;;;;;8.30;56.74;100909.69;1728923;80;25906;-64
2021/04/03 10:13:17;;;;;;;34.30;6.08;;;;;;;8.13;56.02;100923.98;1723800;81;25819;-63
2021/04/03 10:15:45;;;;;;;13.93;5.45;;;;;;;7.81;56.01;100935.11;1721359;81;26243;-63
2021/04/03 10:18:13;;;;;;;16.40;7.20;;;;;;;7.38;56.76;100959.86;1716093;81;26394;-63
2021/04/03 10:20:43;;;;;;;15.85;6.58;;;;;;;6.88;58.84;100974.41;1721715;81;27853;-64
2021/04/03 10:23:11;;;;;;;14.18;6.15;;;;;;;6.33;59.28;100979.14;1716985;80;25902;-66
2021/04/03 10:25:38;;;;;;;12.30;6.47;;;;;;;6.01;59.73;100990.88;1715488;81;26344;-65
2021/04/03 10:28:06;;;;;;;8.13;4.67;;;;;;;5.78;60.44;100997.47;1714019;80;26889;-67
2021/04/03 10:30:34;;;;;;;9.63;4.17;;;;;;;5.41;60.82;100980.41;1683555;83;25761;-65
2021/04/03 10:33:02;;;;;;;9.85;5.08;;;;;;;5.22;61.20;100984.69;1674137;82;27891;-65
2021/04/03 10:35:30;;;;;;;9.58;5.35;;;;;;;5.11;61.46;100980.03;1683122;83;25961;-65
2021/04/03 10:37:59;;;;;;;9.43;5.00;;;;;;;5.07;61.97;100980.98;1680378;82;25922;-65
2021/04/03 10:40:27;;;;;;;11.55;5.80;;;;;;;5.09;62.47;100982.28;1670440;84;26119;-68
2021/04/03 10:42:54;;;;;;;13.88;6.62;;;;;;;5.13;62.76;100974.69;1677543;82;25844;-65
2021/04/03 10:45:22;;;;;;;10.82;6.00;;;;;;;5.19;63.18;100975.92;1654128;85;28373;-66
2021/04/03 10:47:50;;;;;;;13.72;7.28;;;;;;;5.36;63.60;100970.30;1659245;83;25880;-67
2021/04/03 10:50:18;;;;;;;12.98;7.30;;;;;;;5.54;63.94;100966.88;1651719;85;25824;-66
2021/04/03 10:52:46;;;;;;;14.65;6.87;;;;;;;5.71;64.14;100964.36;1641557;85;26639;-66
2021/04/03 10:55:14;;;;;;;17.70;6.03;;;;;;;5.79;64.40;100960.66;1686403;84;26780;-67
2021/04/03 10:57:42;;;;;;;12.13;6.10;;;;;;;5.84;64.60;100955.25;1663884;84;28324;-67
2021/04/03 11:00:11;;;;;;;10.88;5.95;;;;;;;5.93;64.91;100959.55;1677539;82;25778;-66
2021/04/03 11:02:39;;;;;;;9.70;5.22;;;;;;;6.06;65.09;100952.63;1665840;84;25889;-66
2021/04/03 11:05:08;;;;;;;8.53;4.67;;;;;;;6.11;65.22;100941.89;1682962;82;26172;-66
2021/04/03 11:07:36;;;;;;;10.93;5.37;;;;;;;6.13;65.25;100939.63;1711876;81;28106;-66
2021/04/03 11:10:05;;;;;;;11.25;5.28;;;;;;;6.19;65.50;100938.62;1720634;80;27460;-67
2021/04/03 11:12:33;;;;;;;9.68;5.70;;;;;;;6.29;65.73;100943.30;1721101;81;25950;-66
2021/04/03 11:15:01;;;;;;;9.58;5.37;;;;;;;6.29;65.76;100943.30;1731253;80;26463;-66
2021/04/03 11:17:28;;;;;;;14.25;5.78;;;;;;;6.34;65.92;100944.95;1731058;80;25986;-68
2021/04/03 11:19:56;;;;;;;9.63;4.90;;;;;;;6.39;66.07;100952.84;1728274;80;25917;-65
2021/04/03 11:22:24;;;;;;;12.18;6.15;;;;;;;6.50;66.14;100949.04;1720151;81;27827;-66
2021/04/03 11:24:52;;;;;;;8.30;4.67;;;;;;;6.56;66.12;100940.04;1728737;80;26170;-66
2021/04/03 11:27:20;;;;;;;9.58;5.42;;;;;;;6.61;66.08;100946.59;1732206;80;25809;-66
2021/04/03 11:29:49;;;;;;;7.05;4.05;;;;;;;6.76;66.29;100948.45;1700829;82;26123;-66
2021/04/03 11:32:16;;;;;;;9.38;3.80;;;;;;;6.87;65.99;100947.33;1696950;81;25886;-65
2021/04/03 11:34:44;;;;;;;9.03;3.30;;;;;;;6.96;65.79;100949.78;1730743;80;27924;-66
2021/04/03 11:37:12;;;;;;;6.70;4.28;;;;;;;7.04;65.65;100950.02;1699827;81;25888;-66
2021/04/03 11:39:40;;;;;;;6.47;3.47;;;;;;;7.23;65.73;100949.12;1697114;81;25800;-64
2021/04/03 11:42:08;;;;;;;4.28;3.15;;;;;;;7.48;65.55;100944.91;1703048;82;26097;-65
2021/04/03 11:44:35;;;;;;;8.88;2.77;;;;;;;7.66;65.21;100948.02;1703148;82;25941;-66